sensor_id;sensor_type;location;lat;lon;timestamp;temperature;humidity
49218;DHT22;35045;51.194;7.268;2023-05-13T00:02:16;13.50;99.90
49218;DHT22;35045;51.194;7.268;2023-05-13T00:04:42;13.40;99.90
49218;DHT22;35045;51.194;7.268;2023-05-13T00:07:09;13.40;99.90
49218;DHT22;35045;51.194;7.268;2023-05-13T00:09:35;13.40;99.90
49218;DHT22;35045;51.194;7.268;2023-05-13T00:12:02;13.40;99.90
49218;DHT22;35045;51.194;7.268;2023-05-13T00:14:28;13.40;99.90
49218;DHT22;35045;51.194;7.268;2023-05-13T00:16:54;13.40;99.90
49218;DHT22;35045;51.194;7.268;2023-05-13T00:19:21;13.40;99.90
49218;DHT22;35045;51.194;7.268;2023-05-13T00:21:47;13.30;99.90
49218;DHT22;35045;51.194;7.268;2023-05-13T00:24:13;13.40;99.90
49218;DHT22;35045;51.194;7.268;2023-05-13T00:26:39;13.30;99.90
49218;DHT22;35045;51.194;7.268;2023-05-13T00:29:05;13.30;99.90
49218;DHT22;35045;51.194;7.268;2023-05-13T00:31:32;13.30;99.90
49218;DHT22;35045;51.194;7.268;2023-05-13T00:33:58;13.30;99.90
49218;DHT22;35045;51.194;7.268;2023-05-13T00:36:24;13.30;99.90
49218;DHT22;35045;51.194;7.268;2023-05-13T00:38:53;13.30;99.90
49218;DHT22;35045;51.194;7.268;2023-05-13T00:41:19;13.30;99.90
49218;DHT22;35045;51.194;7.268;2023-05-13T00:43:46;13.30;99.90
49218;DHT22;35045;51.194;7.268;2023-05-13T00:46:13;13.30;99.90
49218;DHT22;35045;51.194;7.268;2023-05-13T00:48:40;13.30;99.90
49218;DHT22;35045;51.194;7.268;2023-05-13T00:51:06;13.30;99.90
49218;DHT22;35045;51.194;7.268;2023-05-13T00:53:33;13.20;99.90
49218;DHT22;35045;51.194;7.268;2023-05-13T00:55:59;13.20;99.90
49218;DHT22;35045;51.194;7.268;2023-05-13T00:58:25;13.20;99.90
49218;DHT22;35045;51.194;7.268;2023-05-13T01:03:52;13.30;99.90
49218;DHT22;35045;51.194;7.268;2023-05-13T01:06:28;13.30;99.90
49218;DHT22;35045;51.194;7.268;2023-05-13T01:11:43;13.50;99.90
49218;DHT22;35045;51.194;7.268;2023-05-13T01:14:12;13.50;99.90
49218;DHT22;35045;51.194;7.268;2023-05-13T01:16:48;13.50;99.90
49218;DHT22;35045;51.194;7.268;2023-05-13T01:19:38;13.50;99.90
49218;DHT22;35045;51.194;7.268;2023-05-13T01:22:04;13.60;99.90
49218;DHT22;35045;51.194;7.268;2023-05-13T01:24:31;13.50;99.90
49218;DHT22;35045;51.194;7.268;2023-05-13T01:26:58;13.40;99.90
49218;DHT22;35045;51.194;7.268;2023-05-13T01:29:24;13.30;99.90
49218;DHT22;35045;51.194;7.268;2023-05-13T01:31:51;13.30;99.90
49218;DHT22;35045;51.194;7.268;2023-05-13T01:34:19;13.30;99.90
49218;DHT22;35045;51.194;7.268;2023-05-13T01:36:47;13.30;99.90
49218;DHT22;35045;51.194;7.268;2023-05-13T01:39:14;13.30;99.90
49218;DHT22;35045;51.194;7.268;2023-05-13T01:41:41;13.30;99.90
49218;DHT22;35045;51.194;7.268;2023-05-13T01:44:07;13.30;99.90
49218;DHT22;35045;51.194;7.268;2023-05-13T01:46:34;13.40;99.90
49218;DHT22;35045;51.194;7.268;2023-05-13T01:49:00;13.40;99.90
49218;DHT22;35045;51.194;7.268;2023-05-13T01:51:26;13.30;99.90
49218;DHT22;35045;51.194;7.268;2023-05-13T01:53:52;13.30;99.90
49218;DHT22;35045;51.194;7.268;2023-05-13T01:56:18;13.30;99.90
49218;DHT22;35045;51.194;7.268;2023-05-13T01:58:44;13.30;99.90
49218;DHT22;35045;51.194;7.268;2023-05-13T02:01:10;13.20;99.90
49218;DHT22;35045;51.194;7.268;2023-05-13T02:03:37;13.20;99.90
49218;DHT22;35045;51.194;7.268;2023-05-13T02:06:03;13.20;99.90
49218;DHT22;35045;51.194;7.268;2023-05-13T02:08:29;13.20;99.90
49218;DHT22;35045;51.194;7.268;2023-05-13T02:10:59;13.10;99.90
49218;DHT22;35045;51.194;7.268;2023-05-13T02:13:25;13.10;99.90
49218;DHT22;35045;51.194;7.268;2023-05-13T02:15:52;13.00;99.90
49218;DHT22;35045;51.194;7.268;2023-05-13T02:18:19;13.10;99.90
49218;DHT22;35045;51.194;7.268;2023-05-13T02:20:45;13.00;99.90
49218;DHT22;35045;51.194;7.268;2023-05-13T02:23:12;12.90;99.90
49218;DHT22;35045;51.194;7.268;2023-05-13T02:25:38;12.90;99.90
49218;DHT22;35045;51.194;7.268;2023-05-13T02:28:04;12.90;99.90
49218;DHT22;35045;51.194;7.268;2023-05-13T02:30:30;12.90;99.90
49218;DHT22;35045;51.194;7.268;2023-05-13T02:32:56;12.90;99.90
49218;DHT22;35045;51.194;7.268;2023-05-13T02:35:23;12.90;99.90
49218;DHT22;35045;51.194;7.268;2023-05-13T02:37:55;12.90;99.90
49218;DHT22;35045;51.194;7.268;2023-05-13T02:40:21;12.90;99.90
49218;DHT22;35045;51.194;7.268;2023-05-13T02:42:48;12.90;99.90
49218;DHT22;35045;51.194;7.268;2023-05-13T02:45:14;12.90;99.90
49218;DHT22;35045;51.194;7.268;2023-05-13T02:47:40;12.90;99.90
49218;DHT22;35045;51.194;7.268;2023-05-13T02:50:07;13.00;99.90
49218;DHT22;35045;51.194;7.268;2023-05-13T02:52:37;12.90;99.90
49218;DHT22;35045;51.194;7.268;2023-05-13T02:55:07;12.90;99.90
49218;DHT22;35045;51.194;7.268;2023-05-13T02:57:34;12.90;99.90
49218;DHT22;35045;51.194;7.268;2023-05-13T03:00:02;12.90;99.90
49218;DHT22;35045;51.194;7.268;2023-05-13T03:02:30;12.90;99.90
49218;DHT22;35045;51.194;7.268;2023-05-13T03:04:56;12.80;99.90
49218;DHT22;35045;51.194;7.268;2023-05-13T03:07:23;12.80;99.90
49218;DHT22;35045;51.194;7.268;2023-05-13T03:09:49;12.80;99.90
49218;DHT22;35045;51.194;7.268;2023-05-13T03:12:16;12.80;99.90
49218;DHT22;35045;51.194;7.268;2023-05-13T03:14:42;12.70;99.90
49218;DHT22;35045;51.194;7.268;2023-05-13T03:17:10;12.70;99.90
49218;DHT22;35045;51.194;7.268;2023-05-13T03:19:37;12.70;99.90
49218;DHT22;35045;51.194;7.268;2023-05-13T03:22:04;12.70;99.90
49218;DHT22;35045;51.194;7.268;2023-05-13T03:24:30;12.70;99.90
49218;DHT22;35045;51.194;7.268;2023-05-13T03:26:57;12.70;99.90
49218;DHT22;35045;51.194;7.268;2023-05-13T03:29:23;12.70;99.90
49218;DHT22;35045;51.194;7.268;2023-05-13T03:31:49;12.70;99.90
49218;DHT22;35045;51.194;7.268;2023-05-13T03:34:16;12.70;99.90
49218;DHT22;35045;51.194;7.268;2023-05-13T03:36:42;12.70;99.90
49218;DHT22;35045;51.194;7.268;2023-05-13T03:39:08;12.70;99.90
49218;DHT22;35045;51.194;7.268;2023-05-13T03:41:36;12.70;99.90
49218;DHT22;35045;51.194;7.268;2023-05-13T03:44:02;12.70;99.90
49218;DHT22;35045;51.194;7.268;2023-05-13T03:46:28;12.70;99.90
49218;DHT22;35045;51.194;7.268;2023-05-13T03:48:56;12.70;99.90
49218;DHT22;35045;51.194;7.268;2023-05-13T03:51:22;12.70;99.90
49218;DHT22;35045;51.194;7.268;2023-05-13T03:53:48;12.70;99.90
49218;DHT22;35045;51.194;7.268;2023-05-13T03:56:14;12.60;99.90
49218;DHT22;35045;51.194;7.268;2023-05-13T03:58:40;12.70;99.90
49218;DHT22;35045;51.194;7.268;2023-05-13T04:01:07;12.60;99.90
49218;DHT22;35045;51.194;7.268;2023-05-13T04:03:33;12.60;99.90
49218;DHT22;35045;51.194;7.268;2023-05-13T04:06:00;12.60;99.90
49218;DHT22;35045;51.194;7.268;2023-05-13T04:08:26;12.60;99.90
49218;DHT22;35045;51.194;7.268;2023-05-13T04:10:52;12.50;99.90
49218;DHT22;35045;51.194;7.268;2023-05-13T04:13:19;12.40;99.90
49218;DHT22;35045;51.194;7.268;2023-05-13T04:15:45;12.40;99.90
49218;DHT22;35045;51.194;7.268;2023-05-13T04:18:11;12.40;99.90
49218;DHT22;35045;51.194;7.268;2023-05-13T04:20:38;12.30;99.90
49218;DHT22;35045;51.194;7.268;2023-05-13T04:23:07;12.30;99.90
49218;DHT22;35045;51.194;7.268;2023-05-13T04:25:34;12.30;99.90
49218;DHT22;35045;51.194;7.268;2023-05-13T04:28:01;12.40;99.90
49218;DHT22;35045;51.194;7.268;2023-05-13T04:30:27;12.40;99.90
49218;DHT22;35045;51.194;7.268;2023-05-13T04:32:54;12.40;99.90
49218;DHT22;35045;51.194;7.268;2023-05-13T04:35:20;12.40;99.90
49218;DHT22;35045;51.194;7.268;2023-05-13T04:37:46;12.50;99.90
49218;DHT22;35045;51.194;7.268;2023-05-13T04:40:13;12.60;99.90
49218;DHT22;35045;51.194;7.268;2023-05-13T04:42:39;12.60;99.90
49218;DHT22;35045;51.194;7.268;2023-05-13T04:45:05;12.60;99.90
49218;DHT22;35045;51.194;7.268;2023-05-13T04:47:31;12.60;99.90
49218;DHT22;35045;51.194;7.268;2023-05-13T04:50:00;12.70;99.90
49218;DHT22;35045;51.194;7.268;2023-05-13T04:52:27;12.80;99.90
49218;DHT22;35045;51.194;7.268;2023-05-13T04:54:53;12.80;99.90
49218;DHT22;35045;51.194;7.268;2023-05-13T04:57:19;13.00;99.90
49218;DHT22;35045;51.194;7.268;2023-05-13T04:59:45;13.10;99.90
49218;DHT22;35045;51.194;7.268;2023-05-13T05:02:11;13.20;99.90
49218;DHT22;35045;51.194;7.268;2023-05-13T05:04:37;13.30;99.90
49218;DHT22;35045;51.194;7.268;2023-05-13T05:07:03;13.30;99.90
49218;DHT22;35045;51.194;7.268;2023-05-13T05:09:30;13.40;99.90
49218;DHT22;35045;51.194;7.268;2023-05-13T05:11:56;13.50;99.90
49218;DHT22;35045;51.194;7.268;2023-05-13T05:14:22;13.60;99.90
49218;DHT22;35045;51.194;7.268;2023-05-13T05:16:48;13.60;99.90
49218;DHT22;35045;51.194;7.268;2023-05-13T05:19:14;13.60;99.90
49218;DHT22;35045;51.194;7.268;2023-05-13T05:21:40;13.70;99.90
49218;DHT22;35045;51.194;7.268;2023-05-13T05:24:07;13.70;99.90
49218;DHT22;35045;51.194;7.268;2023-05-13T05:26:33;13.80;99.90
49218;DHT22;35045;51.194;7.268;2023-05-13T05:28:59;13.80;99.90
49218;DHT22;35045;51.194;7.268;2023-05-13T05:31:25;13.90;99.90
49218;DHT22;35045;51.194;7.268;2023-05-13T05:33:52;14.00;99.90
49218;DHT22;35045;51.194;7.268;2023-05-13T05:36:19;14.10;99.90
49218;DHT22;35045;51.194;7.268;2023-05-13T05:38:45;14.10;99.90
49218;DHT22;35045;51.194;7.268;2023-05-13T05:41:12;14.20;99.90
49218;DHT22;35045;51.194;7.268;2023-05-13T05:43:38;14.30;99.90
49218;DHT22;35045;51.194;7.268;2023-05-13T05:46:04;14.30;99.90
49218;DHT22;35045;51.194;7.268;2023-05-13T05:48:30;14.40;99.90
49218;DHT22;35045;51.194;7.268;2023-05-13T05:50:58;14.50;99.90
49218;DHT22;35045;51.194;7.268;2023-05-13T05:53:24;14.60;99.90
49218;DHT22;35045;51.194;7.268;2023-05-13T05:55:50;14.60;99.90
49218;DHT22;35045;51.194;7.268;2023-05-13T05:58:17;14.70;99.90
49218;DHT22;35045;51.194;7.268;2023-05-13T06:00:43;14.80;99.90
49218;DHT22;35045;51.194;7.268;2023-05-13T06:03:09;14.80;99.90
49218;DHT22;35045;51.194;7.268;2023-05-13T06:05:35;14.90;99.90
49218;DHT22;35045;51.194;7.268;2023-05-13T06:08:02;15.00;99.90
49218;DHT22;35045;51.194;7.268;2023-05-13T06:10:28;15.10;99.90
49218;DHT22;35045;51.194;7.268;2023-05-13T06:12:54;15.10;99.90
49218;DHT22;35045;51.194;7.268;2023-05-13T06:15:20;15.20;99.90
49218;DHT22;35045;51.194;7.268;2023-05-13T06:17:46;15.20;99.90
49218;DHT22;35045;51.194;7.268;2023-05-13T06:20:12;15.20;99.90
49218;DHT22;35045;51.194;7.268;2023-05-13T06:22:39;15.20;99.90
49218;DHT22;35045;51.194;7.268;2023-05-13T06:25:06;15.20;99.90
49218;DHT22;35045;51.194;7.268;2023-05-13T06:27:32;15.10;99.90
49218;DHT22;35045;51.194;7.268;2023-05-13T06:29:59;15.10;99.90
49218;DHT22;35045;51.194;7.268;2023-05-13T06:32:25;15.10;99.90
49218;DHT22;35045;51.194;7.268;2023-05-13T06:34:52;15.10;99.90
49218;DHT22;35045;51.194;7.268;2023-05-13T06:37:18;15.10;99.90
49218;DHT22;35045;51.194;7.268;2023-05-13T06:39:45;15.10;99.90
49218;DHT22;35045;51.194;7.268;2023-05-13T06:42:11;15.10;99.90
49218;DHT22;35045;51.194;7.268;2023-05-13T06:44:38;15.20;99.90
49218;DHT22;35045;51.194;7.268;2023-05-13T06:47:05;15.20;99.90
49218;DHT22;35045;51.194;7.268;2023-05-13T06:49:34;15.30;99.90
49218;DHT22;35045;51.194;7.268;2023-05-13T06:52:00;15.40;99.90
49218;DHT22;35045;51.194;7.268;2023-05-13T06:54:26;15.60;99.90
49218;DHT22;35045;51.194;7.268;2023-05-13T06:56:53;15.70;99.90
49218;DHT22;35045;51.194;7.268;2023-05-13T06:59:19;15.90;99.90
49218;DHT22;35045;51.194;7.268;2023-05-13T07:01:46;15.90;99.90
49218;DHT22;35045;51.194;7.268;2023-05-13T07:04:12;15.90;99.90
49218;DHT22;35045;51.194;7.268;2023-05-13T07:06:38;16.00;99.90
49218;DHT22;35045;51.194;7.268;2023-05-13T07:09:05;16.10;99.90
49218;DHT22;35045;51.194;7.268;2023-05-13T07:11:33;16.20;99.90
49218;DHT22;35045;51.194;7.268;2023-05-13T07:13:59;16.40;99.90
49218;DHT22;35045;51.194;7.268;2023-05-13T07:16:25;16.60;99.90
49218;DHT22;35045;51.194;7.268;2023-05-13T07:18:54;16.90;99.90
49218;DHT22;35045;51.194;7.268;2023-05-13T07:21:20;17.20;99.90
49218;DHT22;35045;51.194;7.268;2023-05-13T07:23:46;17.50;99.60
49218;DHT22;35045;51.194;7.268;2023-05-13T07:26:12;17.70;99.60
49218;DHT22;35045;51.194;7.268;2023-05-13T07:28:39;17.80;99.20
49218;DHT22;35045;51.194;7.268;2023-05-13T07:31:05;17.90;98.80
49218;DHT22;35045;51.194;7.268;2023-05-13T07:33:31;17.90;98.40
49218;DHT22;35045;51.194;7.268;2023-05-13T07:35:57;18.00;98.40
49218;DHT22;35045;51.194;7.268;2023-05-13T07:38:24;18.10;98.40
49218;DHT22;35045;51.194;7.268;2023-05-13T07:40:50;18.20;98.40
49218;DHT22;35045;51.194;7.268;2023-05-13T07:43:16;18.30;98.20
49218;DHT22;35045;51.194;7.268;2023-05-13T07:45:49;18.10;98.20
49218;DHT22;35045;51.194;7.268;2023-05-13T07:48:16;18.00;98.20
49218;DHT22;35045;51.194;7.268;2023-05-13T07:50:43;18.00;97.60
49218;DHT22;35045;51.194;7.268;2023-05-13T07:53:10;17.90;98.20
49218;DHT22;35045;51.194;7.268;2023-05-13T07:55:36;18.10;98.20
49218;DHT22;35045;51.194;7.268;2023-05-13T07:58:02;18.20;98.00
49218;DHT22;35045;51.194;7.268;2023-05-13T08:00:28;18.40;97.50
49218;DHT22;35045;51.194;7.268;2023-05-13T08:02:54;18.40;96.90
49218;DHT22;35045;51.194;7.268;2023-05-13T08:05:21;18.40;96.10
49218;DHT22;35045;51.194;7.268;2023-05-13T08:07:47;18.40;96.60
49218;DHT22;35045;51.194;7.268;2023-05-13T08:10:13;18.40;96.70
49218;DHT22;35045;51.194;7.268;2023-05-13T08:12:41;18.50;96.50
49218;DHT22;35045;51.194;7.268;2023-05-13T08:15:07;18.50;96.40
49218;DHT22;35045;51.194;7.268;2023-05-13T08:17:34;18.70;96.20
49218;DHT22;35045;51.194;7.268;2023-05-13T08:20:00;18.90;97.30
49218;DHT22;35045;51.194;7.268;2023-05-13T08:22:26;18.90;96.10
49218;DHT22;35045;51.194;7.268;2023-05-13T08:24:52;18.80;95.60
49218;DHT22;35045;51.194;7.268;2023-05-13T08:27:19;18.70;95.00
49218;DHT22;35045;51.194;7.268;2023-05-13T08:29:45;18.70;94.90
49218;DHT22;35045;51.194;7.268;2023-05-13T08:32:11;18.70;95.00
49218;DHT22;35045;51.194;7.268;2023-05-13T08:34:37;18.70;94.90
49218;DHT22;35045;51.194;7.268;2023-05-13T08:37:03;18.70;94.90
49218;DHT22;35045;51.194;7.268;2023-05-13T08:39:29;18.70;95.10
49218;DHT22;35045;51.194;7.268;2023-05-13T08:41:56;18.90;94.80
49218;DHT22;35045;51.194;7.268;2023-05-13T08:44:24;19.10;95.00
49218;DHT22;35045;51.194;7.268;2023-05-13T08:47:07;19.20;93.90
49218;DHT22;35045;51.194;7.268;2023-05-13T08:49:38;19.20;93.70
49218;DHT22;35045;51.194;7.268;2023-05-13T08:52:05;19.10;93.50
49218;DHT22;35045;51.194;7.268;2023-05-13T08:54:32;19.10;93.80
49218;DHT22;35045;51.194;7.268;2023-05-13T08:56:58;19.20;93.60
49218;DHT22;35045;51.194;7.268;2023-05-13T08:59:24;19.20;93.10
49218;DHT22;35045;51.194;7.268;2023-05-13T09:01:51;19.30;93.90
49218;DHT22;35045;51.194;7.268;2023-05-13T09:04:18;19.50;93.40
49218;DHT22;35045;51.194;7.268;2023-05-13T09:06:46;19.60;93.60
49218;DHT22;35045;51.194;7.268;2023-05-13T09:09:13;19.80;93.90
49218;DHT22;35045;51.194;7.268;2023-05-13T09:11:39;19.80;93.30
49218;DHT22;35045;51.194;7.268;2023-05-13T09:14:06;19.90;92.90
49218;DHT22;35045;51.194;7.268;2023-05-13T09:16:36;20.00;92.90
49218;DHT22;35045;51.194;7.268;2023-05-13T09:19:04;19.90;92.60
49218;DHT22;35045;51.194;7.268;2023-05-13T09:21:34;20.00;92.70
49218;DHT22;35045;51.194;7.268;2023-05-13T09:24:05;20.10;93.20
49218;DHT22;35045;51.194;7.268;2023-05-13T09:26:33;20.30;93.50
49218;DHT22;35045;51.194;7.268;2023-05-13T09:29:23;20.30;93.00
49218;DHT22;35045;51.194;7.268;2023-05-13T09:31:54;20.20;92.60
49218;DHT22;35045;51.194;7.268;2023-05-13T09:34:28;20.20;91.60
49218;DHT22;35045;51.194;7.268;2023-05-13T09:37:06;20.00;91.30
49218;DHT22;35045;51.194;7.268;2023-05-13T09:39:38;20.00;91.40
49218;DHT22;35045;51.194;7.268;2023-05-13T09:42:04;20.10;92.30
49218;DHT22;35045;51.194;7.268;2023-05-13T09:44:31;20.20;92.00
49218;DHT22;35045;51.194;7.268;2023-05-13T09:46:58;20.30;92.60
49218;DHT22;35045;51.194;7.268;2023-05-13T09:49:27;20.50;92.70
49218;DHT22;35045;51.194;7.268;2023-05-13T09:51:53;20.50;92.30
49218;DHT22;35045;51.194;7.268;2023-05-13T09:54:19;20.60;92.30
49218;DHT22;35045;51.194;7.268;2023-05-13T09:56:45;20.50;92.30
49218;DHT22;35045;51.194;7.268;2023-05-13T09:59:11;20.50;92.70
49218;DHT22;35045;51.194;7.268;2023-05-13T10:01:40;20.60;92.40
49218;DHT22;35045;51.194;7.268;2023-05-13T10:04:07;20.60;92.40
49218;DHT22;35045;51.194;7.268;2023-05-13T10:06:35;20.50;92.00
49218;DHT22;35045;51.194;7.268;2023-05-13T10:09:04;20.50;92.30
49218;DHT22;35045;51.194;7.268;2023-05-13T10:11:33;20.70;92.80
49218;DHT22;35045;51.194;7.268;2023-05-13T10:14:04;20.70;92.60
49218;DHT22;35045;51.194;7.268;2023-05-13T10:16:33;20.70;93.20
49218;DHT22;35045;51.194;7.268;2023-05-13T10:19:00;20.90;93.30
49218;DHT22;35045;51.194;7.268;2023-05-13T10:21:27;20.90;92.80
49218;DHT22;35045;51.194;7.268;2023-05-13T10:23:55;21.00;93.00
49218;DHT22;35045;51.194;7.268;2023-05-13T10:26:22;21.00;92.80
49218;DHT22;35045;51.194;7.268;2023-05-13T10:28:49;21.10;92.50
49218;DHT22;35045;51.194;7.268;2023-05-13T10:31:16;21.20;92.30
49218;DHT22;35045;51.194;7.268;2023-05-13T10:33:43;21.30;92.20
49218;DHT22;35045;51.194;7.268;2023-05-13T10:36:44;21.20;90.70
49218;DHT22;35045;51.194;7.268;2023-05-13T10:44:28;21.00;91.70
49218;DHT22;35045;51.194;7.268;2023-05-13T10:46:57;21.10;92.30
49218;DHT22;35045;51.194;7.268;2023-05-13T10:49:31;21.40;92.10
49218;DHT22;35045;51.194;7.268;2023-05-13T10:52:06;21.30;91.70
49218;DHT22;35045;51.194;7.268;2023-05-13T10:54:37;21.40;90.90
49218;DHT22;35045;51.194;7.268;2023-05-13T10:57:05;21.40;90.80
49218;DHT22;35045;51.194;7.268;2023-05-13T10:59:32;21.50;91.50
49218;DHT22;35045;51.194;7.268;2023-05-13T11:02:01;21.50;91.90
49218;DHT22;35045;51.194;7.268;2023-05-13T11:04:28;21.70;91.60
49218;DHT22;35045;51.194;7.268;2023-05-13T11:06:54;21.80;91.30
49218;DHT22;35045;51.194;7.268;2023-05-13T11:12:08;21.90;90.60
49218;DHT22;35045;51.194;7.268;2023-05-13T11:14:34;21.90;90.30
49218;DHT22;35045;51.194;7.268;2023-05-13T11:19:31;22.10;89.70
49218;DHT22;35045;51.194;7.268;2023-05-13T11:22:18;22.00;90.30
49218;DHT22;35045;51.194;7.268;2023-05-13T11:24:46;22.10;90.10
49218;DHT22;35045;51.194;7.268;2023-05-13T11:27:27;22.00;88.50
49218;DHT22;35045;51.194;7.268;2023-05-13T11:29:57;22.00;88.90
49218;DHT22;35045;51.194;7.268;2023-05-13T11:35:22;21.80;89.80
49218;DHT22;35045;51.194;7.268;2023-05-13T11:37:48;21.80;88.90
49218;DHT22;35045;51.194;7.268;2023-05-13T11:42:54;21.80;89.90
49218;DHT22;35045;51.194;7.268;2023-05-13T11:45:22;21.80;90.30
49218;DHT22;35045;51.194;7.268;2023-05-13T11:47:49;21.70;90.40
49218;DHT22;35045;51.194;7.268;2023-05-13T11:50:29;21.80;88.30
49218;DHT22;35045;51.194;7.268;2023-05-13T11:52:57;21.90;90.00
49218;DHT22;35045;51.194;7.268;2023-05-13T11:55:33;22.20;88.60
49218;DHT22;35045;51.194;7.268;2023-05-13T11:58:02;22.40;89.50
49218;DHT22;35045;51.194;7.268;2023-05-13T12:00:30;22.70;84.80
49218;DHT22;35045;51.194;7.268;2023-05-13T12:02:57;23.00;85.20
49218;DHT22;35045;51.194;7.268;2023-05-13T12:05:25;23.10;83.50
49218;DHT22;35045;51.194;7.268;2023-05-13T12:07:57;23.40;83.50
49218;DHT22;35045;51.194;7.268;2023-05-13T12:10:24;23.50;82.70
49218;DHT22;35045;51.194;7.268;2023-05-13T12:12:50;23.70;82.20
49218;DHT22;35045;51.194;7.268;2023-05-13T12:15:18;23.60;82.50
49218;DHT22;35045;51.194;7.268;2023-05-13T12:17:45;23.70;84.90
49218;DHT22;35045;51.194;7.268;2023-05-13T12:20:14;23.70;84.90
49218;DHT22;35045;51.194;7.268;2023-05-13T12:28:29;23.40;82.30
49218;DHT22;35045;51.194;7.268;2023-05-13T12:31:01;23.10;81.60
49218;DHT22;35045;51.194;7.268;2023-05-13T12:33:32;22.70;83.10
49218;DHT22;35045;51.194;7.268;2023-05-13T12:36:37;22.30;84.60
49218;DHT22;35045;51.194;7.268;2023-05-13T12:39:09;21.80;84.60
49218;DHT22;35045;51.194;7.268;2023-05-13T12:41:37;21.60;86.60
49218;DHT22;35045;51.194;7.268;2023-05-13T12:44:08;21.30;87.40
49218;DHT22;35045;51.194;7.268;2023-05-13T12:46:35;21.20;87.70
49218;DHT22;35045;51.194;7.268;2023-05-13T12:49:03;21.00;88.30
49218;DHT22;35045;51.194;7.268;2023-05-13T12:51:29;21.00;87.90
49218;DHT22;35045;51.194;7.268;2023-05-13T12:53:56;21.10;88.60
49218;DHT22;35045;51.194;7.268;2023-05-13T12:56:24;21.40;88.30
49218;DHT22;35045;51.194;7.268;2023-05-13T12:58:52;21.80;87.90
49218;DHT22;35045;51.194;7.268;2023-05-13T13:01:19;22.30;87.70
49218;DHT22;35045;51.194;7.268;2023-05-13T13:03:45;22.60;87.20
49218;DHT22;35045;51.194;7.268;2023-05-13T13:06:12;23.00;85.80
49218;DHT22;35045;51.194;7.268;2023-05-13T13:08:39;23.00;86.90
49218;DHT22;35045;51.194;7.268;2023-05-13T13:11:05;23.40;86.00
49218;DHT22;35045;51.194;7.268;2023-05-13T13:13:31;23.90;82.50
49218;DHT22;35045;51.194;7.268;2023-05-13T13:15:58;24.40;81.60
49218;DHT22;35045;51.194;7.268;2023-05-13T13:18:25;24.80;80.80
49218;DHT22;35045;51.194;7.268;2023-05-13T13:20:52;24.90;79.00
49218;DHT22;35045;51.194;7.268;2023-05-13T13:23:19;24.90;76.80
49218;DHT22;35045;51.194;7.268;2023-05-13T13:25:45;24.90;74.50
49218;DHT22;35045;51.194;7.268;2023-05-13T13:28:11;24.90;72.80
49218;DHT22;35045;51.194;7.268;2023-05-13T13:30:37;25.00;70.30
49218;DHT22;35045;51.194;7.268;2023-05-13T13:33:04;25.10;68.30
49218;DHT22;35045;51.194;7.268;2023-05-13T13:35:30;25.00;65.20
49218;DHT22;35045;51.194;7.268;2023-05-13T13:37:56;25.50;67.10
49218;DHT22;35045;51.194;7.268;2023-05-13T13:40:22;25.90;65.40
49218;DHT22;35045;51.194;7.268;2023-05-13T13:42:49;26.30;63.30
49218;DHT22;35045;51.194;7.268;2023-05-13T13:45:15;26.60;60.00
49218;DHT22;35045;51.194;7.268;2023-05-13T13:47:41;26.20;58.70
49218;DHT22;35045;51.194;7.268;2023-05-13T13:50:08;26.50;60.60
49218;DHT22;35045;51.194;7.268;2023-05-13T13:52:34;26.40;56.50
49218;DHT22;35045;51.194;7.268;2023-05-13T13:55:00;25.80;55.60
49218;DHT22;35045;51.194;7.268;2023-05-13T13:57:26;25.30;55.20
49218;DHT22;35045;51.194;7.268;2023-05-13T13:59:52;24.60;56.50
49218;DHT22;35045;51.194;7.268;2023-05-13T14:02:18;24.40;57.10
49218;DHT22;35045;51.194;7.268;2023-05-13T14:04:45;24.30;57.70
49218;DHT22;35045;51.194;7.268;2023-05-13T14:07:11;24.20;58.80
49218;DHT22;35045;51.194;7.268;2023-05-13T14:09:37;23.90;60.10
49218;DHT22;35045;51.194;7.268;2023-05-13T14:12:04;24.00;59.90
49218;DHT22;35045;51.194;7.268;2023-05-13T14:14:30;24.00;61.00
49218;DHT22;35045;51.194;7.268;2023-05-13T14:16:56;24.30;61.10
49218;DHT22;35045;51.194;7.268;2023-05-13T14:19:22;24.90;60.70
49218;DHT22;35045;51.194;7.268;2023-05-13T14:21:49;25.60;60.30
49218;DHT22;35045;51.194;7.268;2023-05-13T14:24:15;25.90;59.20
49218;DHT22;35045;51.194;7.268;2023-05-13T14:26:41;26.40;60.00
49218;DHT22;35045;51.194;7.268;2023-05-13T14:29:07;27.00;60.10
49218;DHT22;35045;51.194;7.268;2023-05-13T14:31:33;27.50;59.60
49218;DHT22;35045;51.194;7.268;2023-05-13T14:33:59;27.90;59.80
49218;DHT22;35045;51.194;7.268;2023-05-13T14:36:25;28.30;59.20
49218;DHT22;35045;51.194;7.268;2023-05-13T14:38:52;28.60;59.10
49218;DHT22;35045;51.194;7.268;2023-05-13T14:41:18;29.20;59.80
49218;DHT22;35045;51.194;7.268;2023-05-13T14:43:46;29.20;61.70
49218;DHT22;35045;51.194;7.268;2023-05-13T14:46:12;28.30;62.20
49218;DHT22;35045;51.194;7.268;2023-05-13T14:48:38;26.90;63.10
49218;DHT22;35045;51.194;7.268;2023-05-13T14:51:04;25.80;65.40
49218;DHT22;35045;51.194;7.268;2023-05-13T14:53:31;24.70;67.20
49218;DHT22;35045;51.194;7.268;2023-05-13T14:55:57;23.80;68.20
49218;DHT22;35045;51.194;7.268;2023-05-13T14:58:23;23.10;69.50
49218;DHT22;35045;51.194;7.268;2023-05-13T15:00:49;22.60;71.20
49218;DHT22;35045;51.194;7.268;2023-05-13T15:03:15;22.30;72.70
49218;DHT22;35045;51.194;7.268;2023-05-13T15:05:42;21.70;74.10
49218;DHT22;35045;51.194;7.268;2023-05-13T15:08:09;20.90;76.20
49218;DHT22;35045;51.194;7.268;2023-05-13T15:10:35;20.30;78.40
49218;DHT22;35045;51.194;7.268;2023-05-13T15:13:01;19.90;82.00
49218;DHT22;35045;51.194;7.268;2023-05-13T15:15:27;19.60;86.60
49218;DHT22;35045;51.194;7.268;2023-05-13T15:17:53;19.50;89.90
49218;DHT22;35045;51.194;7.268;2023-05-13T15:20:19;19.30;91.80
49218;DHT22;35045;51.194;7.268;2023-05-13T15:22:47;19.10;91.70
49218;DHT22;35045;51.194;7.268;2023-05-13T15:25:13;19.00;92.20
49218;DHT22;35045;51.194;7.268;2023-05-13T15:27:39;19.00;92.90
49218;DHT22;35045;51.194;7.268;2023-05-13T15:30:06;19.00;92.30
49218;DHT22;35045;51.194;7.268;2023-05-13T15:32:32;19.00;93.00
49218;DHT22;35045;51.194;7.268;2023-05-13T15:34:58;18.90;93.30
49218;DHT22;35045;51.194;7.268;2023-05-13T15:37:24;18.70;94.90
49218;DHT22;35045;51.194;7.268;2023-05-13T15:39:50;18.60;95.60
49218;DHT22;35045;51.194;7.268;2023-05-13T15:42:16;18.40;96.10
49218;DHT22;35045;51.194;7.268;2023-05-13T15:44:42;18.40;96.30
49218;DHT22;35045;51.194;7.268;2023-05-13T15:47:10;18.40;96.50
49218;DHT22;35045;51.194;7.268;2023-05-13T15:49:36;18.50;96.30
49218;DHT22;35045;51.194;7.268;2023-05-13T15:52:02;18.50;95.40
49218;DHT22;35045;51.194;7.268;2023-05-13T15:54:32;18.60;94.80
49218;DHT22;35045;51.194;7.268;2023-05-13T15:56:58;18.60;94.20
49218;DHT22;35045;51.194;7.268;2023-05-13T15:59:25;18.70;94.40